sensor_id;sensor_type;location;lat;lon;timestamp;P1;durP1;ratioP1;P2;durP2;ratioP2
68438;SDS011;55421;51.600;5.718;2023-12-07T00:01:28;19.70;;;12.90;;
68438;SDS011;55421;51.600;5.718;2023-12-07T00:03:54;22.60;;;13.40;;
68438;SDS011;55421;51.600;5.718;2023-12-07T00:06:21;22.80;;;13.00;;
68438;SDS011;55421;51.600;5.718;2023-12-07T00:08:47;23.30;;;13.80;;
68438;SDS011;55421;51.600;5.718;2023-12-07T00:11:14;22.60;;;13.10;;
68438;SDS011;55421;51.600;5.718;2023-12-07T00:13:40;23.80;;;12.80;;
68438;SDS011;55421;51.600;5.718;2023-12-07T00:16:07;23.90;;;13.90;;
68438;SDS011;55421;51.600;5.718;2023-12-07T00:18:33;25.10;;;14.00;;
68438;SDS011;55421;51.600;5.718;2023-12-07T00:21:01;20.20;;;12.80;;
68438;SDS011;55421;51.600;5.718;2023-12-07T00:23:27;21.30;;;13.20;;
68438;SDS011;55421;51.600;5.718;2023-12-07T00:25:54;23.60;;;13.90;;
68438;SDS011;55421;51.600;5.718;2023-12-07T00:28:20;25.40;;;13.90;;
68438;SDS011;55421;51.600;5.718;2023-12-07T00:30:46;21.10;;;12.60;;
68438;SDS011;55421;51.600;5.718;2023-12-07T00:33:13;20.70;;;12.50;;
68438;SDS011;55421;51.600;5.718;2023-12-07T00:35:39;23.80;;;13.50;;
68438;SDS011;55421;51.600;5.718;2023-12-07T00:38:06;24.40;;;13.50;;
68438;SDS011;55421;51.600;5.718;2023-12-07T00:40:34;23.20;;;13.20;;
68438;SDS011;55421;51.600;5.718;2023-12-07T00:43:06;23.50;;;13.80;;
68438;SDS011;55421;51.600;5.718;2023-12-07T00:45:33;21.50;;;13.80;;
68438;SDS011;55421;51.600;5.718;2023-12-07T00:48:00;22.70;;;13.70;;
68438;SDS011;55421;51.600;5.718;2023-12-07T00:50:26;27.10;;;14.50;;
68438;SDS011;55421;51.600;5.718;2023-12-07T00:52:53;23.40;;;13.60;;
68438;SDS011;55421;51.600;5.718;2023-12-07T00:55:19;24.10;;;13.80;;
68438;SDS011;55421;51.600;5.718;2023-12-07T00:57:46;22.90;;;13.40;;
68438;SDS011;55421;51.600;5.718;2023-12-07T01:00:13;22.30;;;13.60;;
68438;SDS011;55421;51.600;5.718;2023-12-07T01:02:39;23.90;;;13.90;;
68438;SDS011;55421;51.600;5.718;2023-12-07T01:05:06;27.40;;;15.10;;
68438;SDS011;55421;51.600;5.718;2023-12-07T01:07:33;28.70;;;15.30;;
68438;SDS011;55421;51.600;5.718;2023-12-07T01:09:59;23.60;;;13.80;;
68438;SDS011;55421;51.600;5.718;2023-12-07T01:12:26;26.10;;;14.50;;
68438;SDS011;55421;51.600;5.718;2023-12-07T01:14:52;25.20;;;14.10;;
68438;SDS011;55421;51.600;5.718;2023-12-07T01:17:19;24.90;;;13.60;;
68438;SDS011;55421;51.600;5.718;2023-12-07T01:19:45;23.20;;;14.10;;
68438;SDS011;55421;51.600;5.718;2023-12-07T01:22:12;23.90;;;14.20;;
68438;SDS011;55421;51.600;5.718;2023-12-07T01:24:39;21.90;;;13.70;;
68438;SDS011;55421;51.600;5.718;2023-12-07T01:27:05;24.50;;;14.40;;
68438;SDS011;55421;51.600;5.718;2023-12-07T01:29:32;24.20;;;14.40;;
68438;SDS011;55421;51.600;5.718;2023-12-07T01:31:58;25.60;;;15.30;;
68438;SDS011;55421;51.600;5.718;2023-12-07T01:34:25;27.60;;;15.00;;
68438;SDS011;55421;51.600;5.718;2023-12-07T01:36:51;27.40;;;15.30;;
68438;SDS011;55421;51.600;5.718;2023-12-07T01:39:18;27.70;;;15.30;;
68438;SDS011;55421;51.600;5.718;2023-12-07T01:41:45;29.30;;;15.70;;
68438;SDS011;55421;51.600;5.718;2023-12-07T01:44:11;27.30;;;15.70;;
68438;SDS011;55421;51.600;5.718;2023-12-07T01:46:38;24.50;;;15.30;;
68438;SDS011;55421;51.600;5.718;2023-12-07T01:49:04;25.60;;;15.20;;
68438;SDS011;55421;51.600;5.718;2023-12-07T01:51:31;26.70;;;15.40;;
68438;SDS011;55421;51.600;5.718;2023-12-07T01:53:58;25.90;;;15.40;;
68438;SDS011;55421;51.600;5.718;2023-12-07T01:56:25;26.30;;;15.80;;
68438;SDS011;55421;51.600;5.718;2023-12-07T01:58:52;25.80;;;15.40;;
68438;SDS011;55421;51.600;5.718;2023-12-07T02:01:19;26.80;;;15.30;;
68438;SDS011;55421;51.600;5.718;2023-12-07T02:03:46;26.40;;;15.00;;
68438;SDS011;55421;51.600;5.718;2023-12-07T02:06:12;23.60;;;14.20;;
68438;SDS011;55421;51.600;5.718;2023-12-07T02:08:40;27.20;;;15.60;;
68438;SDS011;55421;51.600;5.718;2023-12-07T02:11:09;25.60;;;15.40;;
68438;SDS011;55421;51.600;5.718;2023-12-07T02:13:40;27.40;;;16.00;;
68438;SDS011;55421;51.600;5.718;2023-12-07T02:16:13;27.80;;;15.80;;
68438;SDS011;55421;51.600;5.718;2023-12-07T02:18:51;26.10;;;15.50;;
68438;SDS011;55421;51.600;5.718;2023-12-07T02:21:36;27.90;;;16.30;;
68438;SDS011;55421;51.600;5.718;2023-12-07T02:24:08;29.20;;;17.00;;
68438;SDS011;55421;51.600;5.718;2023-12-07T02:26:38;27.40;;;16.00;;
68438;SDS011;55421;51.600;5.718;2023-12-07T02:29:04;29.60;;;17.00;;
68438;SDS011;55421;51.600;5.718;2023-12-07T02:31:31;28.00;;;16.80;;
68438;SDS011;55421;51.600;5.718;2023-12-07T02:33:58;25.90;;;16.40;;
68438;SDS011;55421;51.600;5.718;2023-12-07T02:36:27;30.40;;;16.60;;
68438;SDS011;55421;51.600;5.718;2023-12-07T02:38:58;26.90;;;15.70;;
68438;SDS011;55421;51.600;5.718;2023-12-07T02:41:30;27.60;;;17.20;;
68438;SDS011;55421;51.600;5.718;2023-12-07T02:43:59;31.80;;;17.00;;
68438;SDS011;55421;51.600;5.718;2023-12-07T02:46:28;28.70;;;17.50;;
68438;SDS011;55421;51.600;5.718;2023-12-07T02:48:57;29.10;;;16.40;;
68438;SDS011;55421;51.600;5.718;2023-12-07T02:51:24;26.80;;;16.30;;
68438;SDS011;55421;51.600;5.718;2023-12-07T02:53:51;28.70;;;16.60;;
68438;SDS011;55421;51.600;5.718;2023-12-07T02:56:17;25.90;;;15.60;;
68438;SDS011;55421;51.600;5.718;2023-12-07T02:58:44;29.00;;;16.70;;
68438;SDS011;55421;51.600;5.718;2023-12-07T03:01:11;28.30;;;17.30;;
68438;SDS011;55421;51.600;5.718;2023-12-07T03:03:39;27.40;;;16.60;;
68438;SDS011;55421;51.600;5.718;2023-12-07T03:06:08;29.00;;;16.60;;
68438;SDS011;55421;51.600;5.718;2023-12-07T03:08:34;25.80;;;16.40;;
68438;SDS011;55421;51.600;5.718;2023-12-07T03:11:01;27.30;;;17.10;;
68438;SDS011;55421;51.600;5.718;2023-12-07T03:13:27;27.70;;;17.20;;
68438;SDS011;55421;51.600;5.718;2023-12-07T03:15:54;29.30;;;17.90;;
68438;SDS011;55421;51.600;5.718;2023-12-07T03:18:20;34.60;;;18.70;;
68438;SDS011;55421;51.600;5.718;2023-12-07T03:20:46;29.70;;;18.10;;
68438;SDS011;55421;51.600;5.718;2023-12-07T03:23:13;29.10;;;16.80;;
68438;SDS011;55421;51.600;5.718;2023-12-07T03:25:39;28.10;;;16.20;;
68438;SDS011;55421;51.600;5.718;2023-12-07T03:28:06;28.80;;;16.40;;
68438;SDS011;55421;51.600;5.718;2023-12-07T03:30:32;28.80;;;16.80;;
68438;SDS011;55421;51.600;5.718;2023-12-07T03:32:59;24.30;;;14.10;;
68438;SDS011;55421;51.600;5.718;2023-12-07T03:35:25;26.70;;;16.00;;
68438;SDS011;55421;51.600;5.718;2023-12-07T03:37:52;27.30;;;16.40;;
68438;SDS011;55421;51.600;5.718;2023-12-07T03:40:18;25.40;;;15.00;;
68438;SDS011;55421;51.600;5.718;2023-12-07T03:42:45;24.80;;;15.50;;
68438;SDS011;55421;51.600;5.718;2023-12-07T03:45:11;29.40;;;16.40;;
68438;SDS011;55421;51.600;5.718;2023-12-07T03:47:38;26.50;;;16.50;;
68438;SDS011;55421;51.600;5.718;2023-12-07T03:50:05;26.20;;;16.20;;
68438;SDS011;55421;51.600;5.718;2023-12-07T03:52:32;25.10;;;14.00;;
68438;SDS011;55421;51.600;5.718;2023-12-07T03:55:01;26.40;;;16.40;;
68438;SDS011;55421;51.600;5.718;2023-12-07T03:57:27;27.90;;;13.80;;
68438;SDS011;55421;51.600;5.718;2023-12-07T03:59:54;26.00;;;14.90;;
68438;SDS011;55421;51.600;5.718;2023-12-07T04:02:21;27.80;;;16.40;;
68438;SDS011;55421;51.600;5.718;2023-12-07T04:04:47;29.10;;;16.30;;
68438;SDS011;55421;51.600;5.718;2023-12-07T04:07:15;30.90;;;16.10;;
68438;SDS011;55421;51.600;5.718;2023-12-07T04:09:42;26.70;;;15.00;;
68438;SDS011;55421;51.600;5.718;2023-12-07T04:12:08;24.80;;;14.60;;
68438;SDS011;55421;51.600;5.718;2023-12-07T04:14:34;26.10;;;15.20;;
68438;SDS011;55421;51.600;5.718;2023-12-07T04:17:01;29.10;;;16.80;;
68438;SDS011;55421;51.600;5.718;2023-12-07T04:19:27;23.90;;;14.80;;
68438;SDS011;55421;51.600;5.718;2023-12-07T04:21:54;24.50;;;14.80;;
68438;SDS011;55421;51.600;5.718;2023-12-07T04:24:20;25.50;;;15.50;;
68438;SDS011;55421;51.600;5.718;2023-12-07T04:26:48;23.80;;;14.60;;
68438;SDS011;55421;51.600;5.718;2023-12-07T04:29:15;26.40;;;15.30;;
68438;SDS011;55421;51.600;5.718;2023-12-07T04:31:42;24.60;;;15.20;;
68438;SDS011;55421;51.600;5.718;2023-12-07T04:34:08;25.50;;;15.00;;
68438;SDS011;55421;51.600;5.718;2023-12-07T04:36:34;25.10;;;13.90;;
68438;SDS011;55421;51.600;5.718;2023-12-07T04:39:01;25.70;;;15.40;;
68438;SDS011;55421;51.600;5.718;2023-12-07T04:41:27;29.10;;;15.60;;
68438;SDS011;55421;51.600;5.718;2023-12-07T04:43:54;24.20;;;14.60;;
68438;SDS011;55421;51.600;5.718;2023-12-07T04:46:20;28.00;;;15.70;;
68438;SDS011;55421;51.600;5.718;2023-12-07T04:48:47;27.50;;;16.10;;
68438;SDS011;55421;51.600;5.718;2023-12-07T04:51:14;26.50;;;16.40;;
68438;SDS011;55421;51.600;5.718;2023-12-07T04:53:40;26.20;;;15.10;;
68438;SDS011;55421;51.600;5.718;2023-12-07T04:56:07;26.00;;;15.10;;
68438;SDS011;55421;51.600;5.718;2023-12-07T04:58:33;23.90;;;14.50;;
68438;SDS011;55421;51.600;5.718;2023-12-07T05:01:00;25.70;;;14.30;;
68438;SDS011;55421;51.600;5.718;2023-12-07T05:03:26;27.50;;;15.70;;
68438;SDS011;55421;51.600;5.718;2023-12-07T05:05:53;23.50;;;13.90;;
68438;SDS011;55421;51.600;5.718;2023-12-07T05:08:19;27.00;;;14.90;;
68438;SDS011;55421;51.600;5.718;2023-12-07T05:10:46;25.10;;;14.50;;
68438;SDS011;55421;51.600;5.718;2023-12-07T05:13:12;24.90;;;14.20;;
68438;SDS011;55421;51.600;5.718;2023-12-07T05:15:39;26.00;;;14.80;;
68438;SDS011;55421;51.600;5.718;2023-12-07T05:18:06;26.10;;;14.50;;
68438;SDS011;55421;51.600;5.718;2023-12-07T05:20:32;26.60;;;14.20;;
68438;SDS011;55421;51.600;5.718;2023-12-07T05:23:00;26.00;;;13.40;;
68438;SDS011;55421;51.600;5.718;2023-12-07T05:25:26;25.70;;;13.60;;
68438;SDS011;55421;51.600;5.718;2023-12-07T05:27:53;25.30;;;14.80;;
68438;SDS011;55421;51.600;5.718;2023-12-07T05:30:19;24.80;;;14.10;;
68438;SDS011;55421;51.600;5.718;2023-12-07T05:32:46;21.40;;;12.60;;
68438;SDS011;55421;51.600;5.718;2023-12-07T05:35:12;25.70;;;13.20;;
68438;SDS011;55421;51.600;5.718;2023-12-07T05:37:41;24.30;;;12.80;;
68438;SDS011;55421;51.600;5.718;2023-12-07T05:40:08;25.30;;;13.80;;
68438;SDS011;55421;51.600;5.718;2023-12-07T05:42:35;24.60;;;13.50;;
68438;SDS011;55421;51.600;5.718;2023-12-07T05:45:02;24.40;;;13.30;;
68438;SDS011;55421;51.600;5.718;2023-12-07T05:47:29;22.20;;;11.80;;
68438;SDS011;55421;51.600;5.718;2023-12-07T05:49:55;15.00;;;8.20;;
68438;SDS011;55421;51.600;5.718;2023-12-07T05:52:24;19.50;;;10.50;;
68438;SDS011;55421;51.600;5.718;2023-12-07T05:54:50;18.20;;;9.90;;
68438;SDS011;55421;51.600;5.718;2023-12-07T05:57:17;17.50;;;10.10;;
68438;SDS011;55421;51.600;5.718;2023-12-07T05:59:45;19.50;;;10.40;;
68438;SDS011;55421;51.600;5.718;2023-12-07T06:02:11;15.20;;;8.60;;
68438;SDS011;55421;51.600;5.718;2023-12-07T06:04:38;14.90;;;8.60;;
68438;SDS011;55421;51.600;5.718;2023-12-07T06:07:04;14.00;;;7.90;;
68438;SDS011;55421;51.600;5.718;2023-12-07T06:09:30;14.40;;;8.00;;
68438;SDS011;55421;51.600;5.718;2023-12-07T06:11:58;16.30;;;8.30;;
68438;SDS011;55421;51.600;5.718;2023-12-07T06:14:24;17.10;;;7.80;;
68438;SDS011;55421;51.600;5.718;2023-12-07T06:16:51;16.00;;;8.70;;
68438;SDS011;55421;51.600;5.718;2023-12-07T06:19:17;15.00;;;8.10;;
68438;SDS011;55421;51.600;5.718;2023-12-07T06:21:44;16.20;;;8.00;;
68438;SDS011;55421;51.600;5.718;2023-12-07T06:24:11;12.80;;;7.20;;
68438;SDS011;55421;51.600;5.718;2023-12-07T06:26:37;16.00;;;8.80;;
68438;SDS011;55421;51.600;5.718;2023-12-07T06:29:04;17.70;;;8.60;;
68438;SDS011;55421;51.600;5.718;2023-12-07T06:31:30;14.30;;;8.00;;
68438;SDS011;55421;51.600;5.718;2023-12-07T06:33:57;15.30;;;8.70;;
68438;SDS011;55421;51.600;5.718;2023-12-07T06:36:23;15.30;;;8.80;;
68438;SDS011;55421;51.600;5.718;2023-12-07T06:38:53;15.70;;;8.20;;
68438;SDS011;55421;51.600;5.718;2023-12-07T06:41:21;18.30;;;7.80;;
68438;SDS011;55421;51.600;5.718;2023-12-07T06:43:47;14.80;;;8.00;;
68438;SDS011;55421;51.600;5.718;2023-12-07T06:46:14;16.90;;;8.50;;
68438;SDS011;55421;51.600;5.718;2023-12-07T06:48:42;21.10;;;8.80;;
68438;SDS011;55421;51.600;5.718;2023-12-07T06:51:10;13.60;;;7.50;;
68438;SDS011;55421;51.600;5.718;2023-12-07T06:53:38;21.40;;;7.60;;
68438;SDS011;55421;51.600;5.718;2023-12-07T06:56:07;15.20;;;7.20;;
68438;SDS011;55421;51.600;5.718;2023-12-07T06:58:34;17.30;;;8.30;;
68438;SDS011;55421;51.600;5.718;2023-12-07T07:01:01;16.40;;;8.20;;
68438;SDS011;55421;51.600;5.718;2023-12-07T07:03:27;16.00;;;7.80;;
68438;SDS011;55421;51.600;5.718;2023-12-07T07:05:54;18.00;;;8.90;;
68438;SDS011;55421;51.600;5.718;2023-12-07T07:08:21;15.80;;;8.20;;
68438;SDS011;55421;51.600;5.718;2023-12-07T07:10:47;16.30;;;8.10;;
68438;SDS011;55421;51.600;5.718;2023-12-07T07:13:14;19.70;;;7.70;;
68438;SDS011;55421;51.600;5.718;2023-12-07T07:15:45;16.50;;;7.90;;
68438;SDS011;55421;51.600;5.718;2023-12-07T07:18:14;17.30;;;7.70;;
68438;SDS011;55421;51.600;5.718;2023-12-07T07:20:40;16.40;;;8.00;;
68438;SDS011;55421;51.600;5.718;2023-12-07T07:23:07;14.70;;;7.30;;
68438;SDS011;55421;51.600;5.718;2023-12-07T07:25:34;19.90;;;7.00;;
68438;SDS011;55421;51.600;5.718;2023-12-07T07:28:01;17.10;;;8.20;;
68438;SDS011;55421;51.600;5.718;2023-12-07T07:30:27;17.00;;;8.60;;
68438;SDS011;55421;51.600;5.718;2023-12-07T07:32:54;15.50;;;7.80;;
68438;SDS011;55421;51.600;5.718;2023-12-07T07:35:20;18.70;;;9.40;;
68438;SDS011;55421;51.600;5.718;2023-12-07T07:37:47;19.10;;;8.50;;
68438;SDS011;55421;51.600;5.718;2023-12-07T07:40:13;17.10;;;8.30;;
68438;SDS011;55421;51.600;5.718;2023-12-07T07:42:40;21.10;;;8.10;;
68438;SDS011;55421;51.600;5.718;2023-12-07T07:45:07;14.80;;;6.90;;
68438;SDS011;55421;51.600;5.718;2023-12-07T07:47:35;18.70;;;8.30;;
68438;SDS011;55421;51.600;5.718;2023-12-07T07:50:01;16.60;;;7.60;;
68438;SDS011;55421;51.600;5.718;2023-12-07T07:52:35;15.40;;;7.70;;
68438;SDS011;55421;51.600;5.718;2023-12-07T07:55:03;13.80;;;7.20;;
68438;SDS011;55421;51.600;5.718;2023-12-07T07:57:30;14.70;;;7.40;;
68438;SDS011;55421;51.600;5.718;2023-12-07T07:59:58;20.00;;;8.20;;
68438;SDS011;55421;51.600;5.718;2023-12-07T08:02:24;19.10;;;8.80;;
68438;SDS011;55421;51.600;5.718;2023-12-07T08:04:51;17.60;;;8.30;;
68438;SDS011;55421;51.600;5.718;2023-12-07T08:07:18;19.30;;;8.70;;
68438;SDS011;55421;51.600;5.718;2023-12-07T08:09:45;19.90;;;9.30;;
68438;SDS011;55421;51.600;5.718;2023-12-07T08:12:11;18.80;;;8.90;;
68438;SDS011;55421;51.600;5.718;2023-12-07T08:14:38;16.50;;;8.40;;
68438;SDS011;55421;51.600;5.718;2023-12-07T08:17:04;16.30;;;7.50;;
68438;SDS011;55421;51.600;5.718;2023-12-07T08:19:31;16.00;;;7.90;;
68438;SDS011;55421;51.600;5.718;2023-12-07T08:21:57;17.60;;;7.50;;
68438;SDS011;55421;51.600;5.718;2023-12-07T08:24:24;17.60;;;8.20;;
68438;SDS011;55421;51.600;5.718;2023-12-07T08:26:53;15.40;;;7.00;;
68438;SDS011;55421;51.600;5.718;2023-12-07T08:29:19;18.10;;;8.30;;
68438;SDS011;55421;51.600;5.718;2023-12-07T08:31:46;20.30;;;9.20;;
68438;SDS011;55421;51.600;5.718;2023-12-07T08:34:13;19.20;;;9.10;;
68438;SDS011;55421;51.600;5.718;2023-12-07T08:36:42;21.50;;;9.00;;
68438;SDS011;55421;51.600;5.718;2023-12-07T08:39:08;19.10;;;9.10;;
68438;SDS011;55421;51.600;5.718;2023-12-07T08:41:36;19.90;;;9.10;;
68438;SDS011;55421;51.600;5.718;2023-12-07T08:44:04;18.30;;;7.80;;
68438;SDS011;55421;51.600;5.718;2023-12-07T08:46:31;16.00;;;7.40;;
68438;SDS011;55421;51.600;5.718;2023-12-07T08:48:57;21.60;;;9.30;;
68438;SDS011;55421;51.600;5.718;2023-12-07T08:51:24;19.50;;;8.80;;
68438;SDS011;55421;51.600;5.718;2023-12-07T08:53:50;21.20;;;9.60;;
68438;SDS011;55421;51.600;5.718;2023-12-07T08:56:18;21.00;;;9.50;;
68438;SDS011;55421;51.600;5.718;2023-12-07T08:58:45;21.50;;;9.60;;
68438;SDS011;55421;51.600;5.718;2023-12-07T09:01:12;24.00;;;9.90;;
68438;SDS011;55421;51.600;5.718;2023-12-07T09:03:40;25.90;;;10.50;;
68438;SDS011;55421;51.600;5.718;2023-12-07T09:06:08;21.60;;;9.00;;
68438;SDS011;55421;51.600;5.718;2023-12-07T09:08:35;27.40;;;11.30;;
68438;SDS011;55421;51.600;5.718;2023-12-07T09:11:01;21.70;;;9.20;;
68438;SDS011;55421;51.600;5.718;2023-12-07T09:13:28;28.00;;;11.80;;
68438;SDS011;55421;51.600;5.718;2023-12-07T09:15:54;26.90;;;11.10;;
68438;SDS011;55421;51.600;5.718;2023-12-07T09:18:20;28.90;;;12.20;;
68438;SDS011;55421;51.600;5.718;2023-12-07T09:20:47;32.00;;;13.00;;
68438;SDS011;55421;51.600;5.718;2023-12-07T09:23:13;28.30;;;12.40;;
68438;SDS011;55421;51.600;5.718;2023-12-07T09:25:42;25.30;;;10.60;;
68438;SDS011;55421;51.600;5.718;2023-12-07T09:28:08;33.90;;;13.10;;
68438;SDS011;55421;51.600;5.718;2023-12-07T09:30:35;32.40;;;13.00;;
68438;SDS011;55421;51.600;5.718;2023-12-07T09:33:01;33.10;;;13.00;;
68438;SDS011;55421;51.600;5.718;2023-12-07T09:35:31;31.60;;;12.30;;
68438;SDS011;55421;51.600;5.718;2023-12-07T09:37:59;28.70;;;12.00;;
68438;SDS011;55421;51.600;5.718;2023-12-07T09:40:26;32.90;;;13.80;;
68438;SDS011;55421;51.600;5.718;2023-12-07T09:42:54;34.10;;;13.70;;
68438;SDS011;55421;51.600;5.718;2023-12-07T09:45:21;30.60;;;12.80;;
68438;SDS011;55421;51.600;5.718;2023-12-07T09:47:51;31.10;;;13.50;;
68438;SDS011;55421;51.600;5.718;2023-12-07T09:52:52;29.00;;;11.80;;
68438;SDS011;55421;51.600;5.718;2023-12-07T09:55:23;29.30;;;13.10;;
68438;SDS011;55421;51.600;5.718;2023-12-07T09:57:51;32.60;;;12.70;;
68438;SDS011;55421;51.600;5.718;2023-12-07T10:00:20;29.70;;;12.50;;
68438;SDS011;55421;51.600;5.718;2023-12-07T10:02:47;34.30;;;13.10;;
68438;SDS011;55421;51.600;5.718;2023-12-07T10:05:14;34.20;;;13.60;;
68438;SDS011;55421;51.600;5.718;2023-12-07T10:07:44;32.40;;;13.70;;
68438;SDS011;55421;51.600;5.718;2023-12-07T10:10:16;28.10;;;11.90;;
68438;SDS011;55421;51.600;5.718;2023-12-07T10:12:58;31.50;;;13.60;;
68438;SDS011;55421;51.600;5.718;2023-12-07T10:15:26;32.50;;;13.20;;
68438;SDS011;55421;51.600;5.718;2023-12-07T10:17:55;30.00;;;12.70;;
68438;SDS011;55421;51.600;5.718;2023-12-07T10:20:27;29.60;;;12.90;;
68438;SDS011;55421;51.600;5.718;2023-12-07T10:23:06;34.70;;;14.00;;
68438;SDS011;55421;51.600;5.718;2023-12-07T10:25:39;30.50;;;13.00;;
68438;SDS011;55421;51.600;5.718;2023-12-07T10:28:08;28.70;;;13.20;;
68438;SDS011;55421;51.600;5.718;2023-12-07T10:30:39;28.10;;;12.40;;
68438;SDS011;55421;51.600;5.718;2023-12-07T10:33:07;25.10;;;11.90;;
68438;SDS011;55421;51.600;5.718;2023-12-07T10:35:40;26.00;;;12.40;;
68438;SDS011;55421;51.600;5.718;2023-12-07T10:38:09;29.40;;;13.60;;
68438;SDS011;55421;51.600;5.718;2023-12-07T10:40:36;22.30;;;10.00;;
68438;SDS011;55421;51.600;5.718;2023-12-07T10:43:07;21.10;;;11.10;;
68438;SDS011;55421;51.600;5.718;2023-12-07T10:45:35;28.80;;;13.20;;
68438;SDS011;55421;51.600;5.718;2023-12-07T10:48:07;25.90;;;12.80;;
68438;SDS011;55421;51.600;5.718;2023-12-07T10:50:37;27.20;;;14.10;;
68438;SDS011;55421;51.600;5.718;2023-12-07T10:53:21;25.60;;;11.00;;
68438;SDS011;55421;51.600;5.718;2023-12-07T10:56:00;30.20;;;14.50;;
68438;SDS011;55421;51.600;5.718;2023-12-07T10:58:27;28.80;;;13.50;;
68438;SDS011;55421;51.600;5.718;2023-12-07T11:00:54;29.90;;;13.80;;
68438;SDS011;55421;51.600;5.718;2023-12-07T11:03:21;31.90;;;14.90;;
68438;SDS011;55421;51.600;5.718;2023-12-07T11:05:48;32.30;;;14.50;;
68438;SDS011;55421;51.600;5.718;2023-12-07T11:08:21;35.10;;;15.40;;
68438;SDS011;55421;51.600;5.718;2023-12-07T11:11:16;31.20;;;15.30;;
68438;SDS011;55421;51.600;5.718;2023-12-07T11:14:03;31.70;;;14.50;;
68438;SDS011;55421;51.600;5.718;2023-12-07T11:16:37;30.40;;;15.30;;
68438;SDS011;55421;51.600;5.718;2023-12-07T11:22:03;31.20;;;15.20;;
68438;SDS011;55421;51.600;5.718;2023-12-07T11:24:32;33.50;;;15.70;;
68438;SDS011;55421;51.600;5.718;2023-12-07T11:26:59;31.00;;;15.40;;
68438;SDS011;55421;51.600;5.718;2023-12-07T11:29:28;32.60;;;16.20;;
68438;SDS011;55421;51.600;5.718;2023-12-07T11:31:57;31.90;;;15.20;;
68438;SDS011;55421;51.600;5.718;2023-12-07T11:34:34;32.80;;;15.50;;
68438;SDS011;55421;51.600;5.718;2023-12-07T11:37:14;34.00;;;16.10;;
68438;SDS011;55421;51.600;5.718;2023-12-07T11:39:45;28.20;;;14.30;;
68438;SDS011;55421;51.600;5.718;2023-12-07T11:42:15;28.20;;;14.40;;
68438;SDS011;55421;51.600;5.718;2023-12-07T11:44:44;29.20;;;15.00;;
68438;SDS011;55421;51.600;5.718;2023-12-07T11:47:16;32.50;;;16.60;;
68438;SDS011;55421;51.600;5.718;2023-12-07T11:49:45;29.70;;;14.10;;
68438;SDS011;55421;51.600;5.718;2023-12-07T11:52:16;39.00;;;18.10;;
68438;SDS011;55421;51.600;5.718;2023-12-07T11:54:48;30.50;;;16.10;;
68438;SDS011;55421;51.600;5.718;2023-12-07T11:57:18;39.40;;;18.10;;
68438;SDS011;55421;51.600;5.718;2023-12-07T11:59:45;42.90;;;19.90;;
68438;SDS011;55421;51.600;5.718;2023-12-07T12:02:14;42.20;;;19.30;;
68438;SDS011;55421;51.600;5.718;2023-12-07T12:04:41;41.70;;;20.60;;
68438;SDS011;55421;51.600;5.718;2023-12-07T12:07:08;39.40;;;18.80;;
68438;SDS011;55421;51.600;5.718;2023-12-07T12:09:35;34.60;;;17.50;;
68438;SDS011;55421;51.600;5.718;2023-12-07T12:12:01;38.70;;;19.00;;
68438;SDS011;55421;51.600;5.718;2023-12-07T12:14:29;39.60;;;18.10;;
68438;SDS011;55421;51.600;5.718;2023-12-07T12:16:56;43.80;;;19.30;;
68438;SDS011;55421;51.600;5.718;2023-12-07T12:19:23;36.10;;;17.70;;
68438;SDS011;55421;51.600;5.718;2023-12-07T12:24:20;41.80;;;17.60;;
68438;SDS011;55421;51.600;5.718;2023-12-07T12:26:47;35.60;;;16.40;;
68438;SDS011;55421;51.600;5.718;2023-12-07T12:29:14;37.30;;;17.70;;
68438;SDS011;55421;51.600;5.718;2023-12-07T12:31:41;38.30;;;19.10;;
68438;SDS011;55421;51.600;5.718;2023-12-07T12:34:08;46.70;;;19.80;;
68438;SDS011;55421;51.600;5.718;2023-12-07T12:36:34;42.40;;;19.10;;
68438;SDS011;55421;51.600;5.718;2023-12-07T12:39:01;44.90;;;21.30;;
68438;SDS011;55421;51.600;5.718;2023-12-07T12:41:28;38.80;;;18.00;;
68438;SDS011;55421;51.600;5.718;2023-12-07T12:43:57;38.30;;;17.00;;
68438;SDS011;55421;51.600;5.718;2023-12-07T12:46:23;44.30;;;19.90;;
68438;SDS011;55421;51.600;5.718;2023-12-07T12:48:54;43.80;;;19.20;;
68438;SDS011;55421;51.600;5.718;2023-12-07T12:51:29;44.20;;;19.60;;
68438;SDS011;55421;51.600;5.718;2023-12-07T12:53:59;44.60;;;19.00;;
68438;SDS011;55421;51.600;5.718;2023-12-07T12:56:27;42.80;;;19.10;;
68438;SDS011;55421;51.600;5.718;2023-12-07T12:58:54;45.90;;;19.60;;
68438;SDS011;55421;51.600;5.718;2023-12-07T13:01:22;44.70;;;19.80;;
68438;SDS011;55421;51.600;5.718;2023-12-07T13:03:49;43.50;;;18.80;;
68438;SDS011;55421;51.600;5.718;2023-12-07T13:06:16;50.00;;;19.50;;
68438;SDS011;55421;51.600;5.718;2023-12-07T13:08:44;36.20;;;15.60;;
68438;SDS011;55421;51.600;5.718;2023-12-07T13:11:18;39.60;;;16.20;;
68438;SDS011;55421;51.600;5.718;2023-12-07T13:13:47;35.50;;;16.50;;
68438;SDS011;55421;51.600;5.718;2023-12-07T13:16:16;31.90;;;13.40;;
68438;SDS011;55421;51.600;5.718;2023-12-07T13:18:42;33.50;;;16.50;;
68438;SDS011;55421;51.600;5.718;2023-12-07T13:21:09;33.00;;;15.30;;
68438;SDS011;55421;51.600;5.718;2023-12-07T13:23:36;32.20;;;15.70;;
68438;SDS011;55421;51.600;5.718;2023-12-07T13:26:03;28.30;;;14.60;;
68438;SDS011;55421;51.600;5.718;2023-12-07T13:28:30;35.50;;;16.70;;
68438;SDS011;55421;51.600;5.718;2023-12-07T13:30:57;35.90;;;17.00;;
68438;SDS011;55421;51.600;5.718;2023-12-07T13:33:23;34.40;;;17.00;;
68438;SDS011;55421;51.600;5.718;2023-12-07T13:35:51;34.20;;;17.40;;
68438;SDS011;55421;51.600;5.718;2023-12-07T13:38:21;37.80;;;17.80;;
68438;SDS011;55421;51.600;5.718;2023-12-07T13:40:48;37.50;;;16.80;;
68438;SDS011;55421;51.600;5.718;2023-12-07T13:43:15;38.20;;;17.50;;
68438;SDS011;55421;51.600;5.718;2023-12-07T13:45:42;35.70;;;17.40;;
68438;SDS011;55421;51.600;5.718;2023-12-07T13:48:08;36.10;;;17.90;;
68438;SDS011;55421;51.600;5.718;2023-12-07T13:50:35;36.10;;;17.90;;
68438;SDS011;55421;51.600;5.718;2023-12-07T13:53:02;41.20;;;20.90;;
68438;SDS011;55421;51.600;5.718;2023-12-07T13:55:29;54.70;;;27.70;;
68438;SDS011;55421;51.600;5.718;2023-12-07T13:57:56;48.10;;;24.70;;
68438;SDS011;55421;51.600;5.718;2023-12-07T14:00:23;62.00;;;30.30;;
68438;SDS011;55421;51.600;5.718;2023-12-07T14:02:50;73.60;;;36.20;;
68438;SDS011;55421;51.600;5.718;2023-12-07T14:05:16;72.30;;;36.60;;
68438;SDS011;55421;51.600;5.718;2023-12-07T14:07:45;45.50;;;22.80;;
68438;SDS011;55421;51.600;5.718;2023-12-07T14:10:11;40.40;;;19.40;;
68438;SDS011;55421;51.600;5.718;2023-12-07T14:12:38;38.80;;;18.50;;
68438;SDS011;55421;51.600;5.718;2023-12-07T14:15:05;43.20;;;19.70;;
68438;SDS011;55421;51.600;5.718;2023-12-07T14:17:32;34.40;;;17.80;;
68438;SDS011;55421;51.600;5.718;2023-12-07T14:20:05;38.40;;;19.30;;
68438;SDS011;55421;51.600;5.718;2023-12-07T14:22:34;34.70;;;17.80;;
68438;SDS011;55421;51.600;5.718;2023-12-07T14:25:01;39.70;;;18.80;;
68438;SDS011;55421;51.600;5.718;2023-12-07T14:27:28;33.40;;;16.60;;
68438;SDS011;55421;51.600;5.718;2023-12-07T14:29:54;33.70;;;15.80;;
68438;SDS011;55421;51.600;5.718;2023-12-07T14:32:21;33.40;;;15.80;;
68438;SDS011;55421;51.600;5.718;2023-12-07T14:34:48;34.50;;;17.10;;